Pineglen — VOGX — position and weather

sailwx.info

Track history (hours):
 
Tides and Currents Weather Stations Pressure Air Temp Water Temp Dewpoint Dewpoint Depression Visibility Wind Speed Wind Dir Waves Ship Positions

Pineglen

Last reported at 2014-Nov-29 06:33 UTC. Time now 2014-Nov-29 07:25 UTC.
Position N 45°30' W 073°31'.

Length 220 m; draft 6.5 m.

Type: Cargo ship. MMSI: 316001839.

Date/timePositionNaut miles runAvg speedWind from/ knotsBaromVisibWave heightAir tempDewpointWater temp
2014-Nov-29 06:33N 45°30' W 073°31'1 1.1
2014-Nov-29 05:34N 45°31' W 073°31'3 2.6
2014-Nov-29 04:33N 45°33' W 073°31'0 0.2
2014-Nov-29 03:33N 45°34' W 073°31'0 0.0
2014-Nov-29 02:34N 45°34' W 073°31'0 0.0
2014-Nov-29 01:33N 45°34' W 073°31'0 0.0
2014-Nov-29 00:33N 45°34' W 073°31'0 0.0
2014-Nov-28 23:33N 45°34' W 073°31'0 0.0
2014-Nov-28 22:33N 45°34' W 073°31'0 0.0
2014-Nov-28 21:34N 45°34' W 073°31'0 0.0
2014-Nov-28 20:33N 45°34' W 073°31'0 0.0
2014-Nov-28 19:34N 45°34' W 073°31'0 0.0
2014-Nov-28 18:33N 45°34' W 073°31'0 0.0
2014-Nov-28 17:34N 45°34' W 073°31'0 0.0
2014-Nov-28 15:33N 45°34' W 073°31'0 0.0
2014-Nov-28 14:34N 45°34' W 073°31'0 0.0
2014-Nov-28 12:34N 45°34' W 073°31'0 0.0
2014-Nov-28 11:33N 45°34' W 073°31'0 0.0
2014-Nov-28 10:33N 45°34' W 073°31'0 0.0
2014-Nov-28 09:34N 45°34' W 073°31'0 0.0
2014-Nov-28 08:34N 45°34' W 073°31'0 0.0
2014-Nov-28 07:33N 45°34' W 073°31'0 0.0
2014-Nov-28 06:33N 45°34' W 073°31'  
2014-Nov-21 15:34N 44°01' W 076°29'0 0.0
2014-Nov-21 14:34N 44°01' W 076°29'5 5.5
2014-Nov-21 13:34N 44°05' W 076°25'3 2.6
2014-Nov-21 12:34N 44°07' W 076°22'8 8.1
2014-Nov-21 11:33N 44°12' W 076°14'14 9.4
2014-Nov-21 10:05N 44°19' W 075°57'5 8.5
2014-Nov-21 09:33N 44°23' W 075°53'1111.0
2014-Nov-21 08:33N 44°32' W 075°45'77 3.1
2014-Nov-20 07:30N 45°14' W 074°13'8 8.6
2014-Nov-20 06:34N 45°14' W 074°02'6 6.4
2014-Nov-20 05:33N 45°18' W 073°56'1 0.8
2014-Nov-20 04:33N 45°19' W 073°55'1 0.8
2014-Nov-20 03:33N 45°20' W 073°55'9 8.9
2014-Nov-20 02:33N 45°24' W 073°44'6 5.7
2014-Nov-20 01:33N 45°24' W 073°36'2 1.7
2014-Nov-20 00:33N 45°24' W 073°33'5 4.6
2014-Nov-19 23:27N 45°29' W 073°31'4 1.5
2014-Nov-19 20:33N 45°34' W 073°31'0 0.0
2014-Nov-19 19:33N 45°34' W 073°31'0 0.0
2014-Nov-19 18:33N 45°34' W 073°31'0 0.0
2014-Nov-19 17:33N 45°34' W 073°31'0 0.0
2014-Nov-19 16:26N 45°34' W 073°31'0 0.0
2014-Nov-19 15:26N 45°34' W 073°31'0 0.0
2014-Nov-19 14:33N 45°34' W 073°31'0 0.0
2014-Nov-19 13:33N 45°34' W 073°31'0 0.0
2014-Nov-19 12:33N 45°34' W 073°31'0 0.0
2014-Nov-19 11:33N 45°34' W 073°31'0 0.0
2014-Nov-19 10:32N 45°34' W 073°31'0 0.0
2014-Nov-19 09:33N 45°34' W 073°31'0 0.0
2014-Nov-19 08:33N 45°34' W 073°31'0 0.0
2014-Nov-19 07:32N 45°34' W 073°31'  
Track history (hours):
 
Tides and Currents Weather Stations Pressure Air Temp Water Temp Dewpoint Dewpoint Depression Visibility Wind Speed Wind Dir Waves Ship Positions

Pineglen

Last reported at 2014-Nov-29 06:33 UTC. Time now 2014-Nov-29 07:25 UTC.
Position N 45°30' W 073°31'.

Length 220 m; draft 6.5 m.

Type: Cargo ship. MMSI: 316001839.

Date/timePositionNaut miles runAvg speedWind from/ knotsBaromVisibWave heightAir tempDewpointWater temp
2014-Nov-29 06:33N 45°30' W 073°31'1 1.1
2014-Nov-29 05:34N 45°31' W 073°31'3 2.6
2014-Nov-29 04:33N 45°33' W 073°31'0 0.2
2014-Nov-29 03:33N 45°34' W 073°31'0 0.0
2014-Nov-29 02:34N 45°34' W 073°31'0 0.0
2014-Nov-29 01:33N 45°34' W 073°31'0 0.0
2014-Nov-29 00:33N 45°34' W 073°31'0 0.0
2014-Nov-28 23:33N 45°34' W 073°31'0 0.0
2014-Nov-28 22:33N 45°34' W 073°31'0 0.0
2014-Nov-28 21:34N 45°34' W 073°31'0 0.0
2014-Nov-28 20:33N 45°34' W 073°31'0 0.0
2014-Nov-28 19:34N 45°34' W 073°31'0 0.0
2014-Nov-28 18:33N 45°34' W 073°31'0 0.0
2014-Nov-28 17:34N 45°34' W 073°31'0 0.0
2014-Nov-28 15:33N 45°34' W 073°31'0 0.0
2014-Nov-28 14:34N 45°34' W 073°31'0 0.0
2014-Nov-28 12:34N 45°34' W 073°31'0 0.0
2014-Nov-28 11:33N 45°34' W 073°31'0 0.0
2014-Nov-28 10:33N 45°34' W 073°31'0 0.0
2014-Nov-28 09:34N 45°34' W 073°31'0 0.0
2014-Nov-28 08:34N 45°34' W 073°31'0 0.0
2014-Nov-28 07:33N 45°34' W 073°31'0 0.0
2014-Nov-28 06:33N 45°34' W 073°31'  
2014-Nov-21 15:34N 44°01' W 076°29'0 0.0
2014-Nov-21 14:34N 44°01' W 076°29'5 5.5
2014-Nov-21 13:34N 44°05' W 076°25'3 2.6
2014-Nov-21 12:34N 44°07' W 076°22'8 8.1
2014-Nov-21 11:33N 44°12' W 076°14'14 9.4
2014-Nov-21 10:05N 44°19' W 075°57'5 8.5
2014-Nov-21 09:33N 44°23' W 075°53'1111.0
2014-Nov-21 08:33N 44°32' W 075°45'77 3.1
2014-Nov-20 07:30N 45°14' W 074°13'8 8.6
2014-Nov-20 06:34N 45°14' W 074°02'6 6.4
2014-Nov-20 05:33N 45°18' W 073°56'1 0.8
2014-Nov-20 04:33N 45°19' W 073°55'1 0.8
2014-Nov-20 03:33N 45°20' W 073°55'9 8.9
2014-Nov-20 02:33N 45°24' W 073°44'6 5.7
2014-Nov-20 01:33N 45°24' W 073°36'2 1.7
2014-Nov-20 00:33N 45°24' W 073°33'5 4.6
2014-Nov-19 23:27N 45°29' W 073°31'4 1.5
2014-Nov-19 20:33N 45°34' W 073°31'0 0.0
2014-Nov-19 19:33N 45°34' W 073°31'0 0.0
2014-Nov-19 18:33N 45°34' W 073°31'0 0.0
2014-Nov-19 17:33N 45°34' W 073°31'0 0.0
2014-Nov-19 16:26N 45°34' W 073°31'0 0.0
2014-Nov-19 15:26N 45°34' W 073°31'0 0.0
2014-Nov-19 14:33N 45°34' W 073°31'0 0.0
2014-Nov-19 13:33N 45°34' W 073°31'0 0.0
2014-Nov-19 12:33N 45°34' W 073°31'0 0.0
2014-Nov-19 11:33N 45°34' W 073°31'0 0.0
2014-Nov-19 10:32N 45°34' W 073°31'0 0.0
2014-Nov-19 09:33N 45°34' W 073°31'0 0.0
2014-Nov-19 08:33N 45°34' W 073°31'0 0.0
2014-Nov-19 07:32N 45°34' W 073°31'  

Dump ship's entire track history